createdAt,value
2022-09-06T00:00:35.562Z,24.10
2022-09-06T00:02:43.887Z,18.92
2022-09-06T00:04:53.621Z,20.17
2022-09-06T00:07:01.206Z,21.33
2022-09-06T00:09:08.383Z,21.83
2022-09-06T00:11:15.931Z,21.23
2022-09-06T00:13:22.952Z,19.92
2022-09-06T00:15:30.478Z,18.85
2022-09-06T00:17:37.789Z,18.85
2022-09-06T00:19:45.228Z,18.90
2022-09-06T00:21:53.885Z,18.80
2022-09-06T00:24:01.062Z,17.23
2022-09-06T00:26:08.756Z,17.08
2022-09-06T00:28:16.050Z,17.63
2022-09-06T00:30:23.015Z,17.58
2022-09-06T00:32:30.668Z,18.42
2022-09-06T00:34:37.641Z,20.20
2022-09-06T00:36:44.661Z,17.60
2022-09-06T00:38:53.531Z,17.25
2022-09-06T00:41:00.824Z,17.65
2022-09-06T00:43:07.749Z,18.00
2022-09-06T00:45:17.023Z,16.50
2022-09-06T00:47:24.050Z,17.88
2022-09-06T00:49:35.845Z,15.60
2022-09-06T00:51:43.435Z,15.10
2022-09-06T00:53:52.618Z,14.75
2022-09-06T00:56:00.306Z,15.60
2022-09-06T00:58:07.796Z,13.23
2022-09-06T01:00:17.182Z,14.85
2022-09-06T01:02:24.771Z,14.10
2022-09-06T01:04:32.263Z,15.48
2022-09-06T01:06:56.132Z,14.35
2022-09-06T01:09:11.820Z,12.20
2022-09-06T01:11:38.568Z,10.23
2022-09-06T01:13:54.809Z,13.18
2022-09-06T01:16:11.182Z,13.27
2022-09-06T01:18:31.040Z,12.95
2022-09-06T01:21:05.438Z,11.90
2022-09-06T01:23:56.911Z,11.43
2022-09-06T01:26:18.646Z,10.55
2022-09-06T01:30:57.092Z,10.55
2022-09-06T01:33:10.187Z,10.98
2022-09-06T01:35:24.123Z,11.23
2022-09-06T01:37:31.562Z,12.02
2022-09-06T01:39:39.919Z,11.32
2022-09-06T01:41:47.099Z,12.25
2022-09-06T01:43:56.082Z,10.32
2022-09-06T01:46:17.244Z,11.40
2022-09-06T01:48:35.984Z,11.60
2022-09-06T01:51:00.791Z,9.50
2022-09-06T01:53:21.234Z,10.18
2022-09-06T01:55:34.755Z,10.88
2022-09-06T01:58:09.075Z,12.73
2022-09-06T02:00:36.234Z,12.50
2022-09-06T02:03:09.675Z,11.35
2022-09-06T02:05:23.614Z,11.60
2022-09-06T02:07:32.693Z,11.00
2022-09-06T02:09:44.066Z,11.60
2022-09-06T02:11:54.935Z,13.27
2022-09-06T02:14:06.975Z,11.52
2022-09-06T02:16:16.768Z,14.13
2022-09-06T02:18:29.126Z,12.10
2022-09-06T02:20:39.274Z,12.07
2022-09-06T02:22:50.038Z,12.25
2022-09-06T02:24:58.962Z,13.27
2022-09-06T02:27:06.040Z,12.50
2022-09-06T02:29:14.043Z,12.13
2022-09-06T02:31:25.830Z,13.07
2022-09-06T02:33:36.907Z,12.30
2022-09-06T02:35:49.155Z,11.45
2022-09-06T02:37:57.517Z,13.63
2022-09-06T02:40:04.658Z,15.98
2022-09-06T02:42:14.281Z,14.50
2022-09-06T02:44:21.260Z,14.65
2022-09-06T02:46:28.647Z,14.95
2022-09-06T02:48:37.571Z,16.70
2022-09-06T02:50:44.954Z,15.18
2022-09-06T02:53:05.755Z,16.23
2022-09-06T02:55:14.016Z,15.35
2022-09-06T02:57:21.096Z,14.20
2022-09-06T02:59:28.697Z,15.68
2022-09-06T03:01:36.931Z,16.00
2022-09-06T03:03:46.737Z,15.57
2022-09-06T03:05:55.111Z,16.85
2022-09-06T03:08:02.327Z,16.15
2022-09-06T03:10:10.070Z,15.75
2022-09-06T03:12:17.415Z,15.95
2022-09-06T03:14:24.537Z,15.68
2022-09-06T03:16:32.161Z,16.58
2022-09-06T03:18:39.359Z,14.13
2022-09-06T03:20:48.387Z,14.95
2022-09-06T03:22:55.412Z,15.13
2022-09-06T03:25:02.647Z,14.15
2022-09-06T03:27:09.723Z,18.15
2022-09-06T03:29:17.329Z,15.88
2022-09-06T03:31:24.397Z,14.40
2022-09-06T03:33:32.261Z,15.30
2022-09-06T03:35:39.426Z,15.63
2022-09-06T03:37:48.455Z,14.10
2022-09-06T03:39:55.576Z,17.27
2022-09-06T03:42:02.965Z,16.45
2022-09-06T03:44:09.890Z,14.60
2022-09-06T03:46:17.578Z,14.43
2022-09-06T03:48:26.031Z,14.60
2022-09-06T03:50:33.437Z,14.32
2022-09-06T03:52:40.422Z,14.00
2022-09-06T03:54:49.645Z,13.45
2022-09-06T03:56:56.825Z,12.73
2022-09-06T03:59:04.007Z,13.07
2022-09-06T04:01:13.304Z,15.45
2022-09-06T04:03:21.962Z,12.77
2022-09-06T04:05:28.986Z,11.90
2022-09-06T04:07:36.776Z,11.18
2022-09-06T04:09:43.902Z,11.85
2022-09-06T04:11:52.888Z,10.60
2022-09-06T04:14:00.063Z,10.98
2022-09-06T04:16:08.391Z,11.02
2022-09-06T04:18:15.711Z,9.80
2022-09-06T04:20:22.896Z,10.18
2022-09-06T04:22:29.968Z,12.85
2022-09-06T04:24:37.354Z,11.65
2022-09-06T04:26:44.390Z,9.90
2022-09-06T04:28:53.352Z,10.48
2022-09-06T04:31:04.606Z,10.60
2022-09-06T04:33:12.435Z,10.05
2022-09-06T04:35:19.810Z,11.02
2022-09-06T04:37:26.942Z,10.13
2022-09-06T04:39:34.114Z,9.82
2022-09-06T04:41:41.575Z,10.07
2022-09-06T04:43:48.805Z,9.75
2022-09-06T04:45:57.677Z,10.60
2022-09-06T04:48:05.155Z,9.52
2022-09-06T04:50:12.959Z,9.45
2022-09-06T04:52:20.645Z,8.50
2022-09-06T04:54:28.243Z,9.90
2022-09-06T04:56:35.517Z,8.68
2022-09-06T04:58:42.704Z,8.98
2022-09-06T05:00:49.767Z,9.10
2022-09-06T05:02:58.669Z,8.30
2022-09-06T05:05:07.530Z,7.85
2022-09-06T05:07:15.231Z,7.85
2022-09-06T05:09:22.158Z,11.13
2022-09-06T05:11:29.379Z,7.78
2022-09-06T05:13:36.762Z,8.55
2022-09-06T05:15:43.839Z,8.38
2022-09-06T05:17:50.981Z,8.23
2022-09-06T05:19:59.686Z,7.43
2022-09-06T05:22:06.779Z,8.20
2022-09-06T05:24:13.896Z,8.30
2022-09-06T05:26:21.137Z,7.95
2022-09-06T05:28:28.226Z,8.70
2022-09-06T05:30:35.443Z,8.02
2022-09-06T05:32:42.470Z,8.35
2022-09-06T05:34:49.549Z,8.75
2022-09-06T05:36:58.369Z,9.13
2022-09-06T05:39:05.353Z,8.07
2022-09-06T05:41:12.378Z,8.05
2022-09-06T05:43:19.659Z,8.68
2022-09-06T05:45:26.903Z,7.40
2022-09-06T05:47:36.583Z,7.78
2022-09-06T05:49:43.874Z,7.13
2022-09-06T05:51:54.939Z,8.40
2022-09-06T05:54:04.347Z,7.25
2022-09-06T05:56:12.373Z,8.13
2022-09-06T05:58:19.670Z,7.65
2022-09-06T06:00:26.737Z,6.93
2022-09-06T06:02:33.975Z,6.63
2022-09-06T06:04:41.204Z,7.28
2022-09-06T06:06:50.126Z,7.30
2022-09-06T06:08:57.470Z,7.20
2022-09-06T06:11:06.494Z,8.73
2022-09-06T06:13:13.421Z,7.60
2022-09-06T06:15:20.388Z,8.13
2022-09-06T06:17:27.733Z,7.90
2022-09-06T06:19:34.910Z,8.80
2022-09-06T06:21:42.613Z,7.75
2022-09-06T06:23:52.746Z,8.52
2022-09-06T06:25:59.980Z,8.07
2022-09-06T06:28:09.418Z,7.50
2022-09-06T06:30:18.494Z,7.07
2022-09-06T06:32:26.134Z,9.07
2022-09-06T06:34:33.316Z,6.70
2022-09-06T06:36:41.265Z,7.97
2022-09-06T06:38:48.931Z,6.45
2022-09-06T06:41:00.969Z,9.75
2022-09-06T06:43:13.051Z,7.30
2022-09-06T06:45:21.406Z,7.93
2022-09-06T06:47:28.396Z,8.05
2022-09-06T06:49:35.672Z,7.43
2022-09-06T06:51:42.765Z,8.82
2022-09-06T06:53:50.549Z,7.43
2022-09-06T06:55:57.725Z,7.20
2022-09-06T06:58:05.062Z,8.00
2022-09-06T07:00:15.316Z,8.98
2022-09-06T07:02:22.474Z,7.03
2022-09-06T07:04:29.637Z,7.00
2022-09-06T07:09:19.273Z,8.45
2022-09-06T07:11:26.652Z,7.63
2022-09-06T07:13:35.274Z,7.55
2022-09-06T07:15:44.197Z,7.30
2022-09-06T07:17:51.231Z,8.10
2022-09-06T07:20:14.295Z,7.75
2022-09-06T07:22:21.864Z,7.45
2022-09-06T07:24:29.248Z,7.65
2022-09-06T07:26:37.622Z,7.05
2022-09-06T07:28:44.739Z,7.00
2022-09-06T07:30:58.237Z,7.65
2022-09-06T07:33:06.325Z,7.88
2022-09-06T07:35:15.054Z,7.53
2022-09-06T07:37:22.070Z,7.95
2022-09-06T07:39:29.415Z,7.25
2022-09-06T07:41:36.534Z,8.50
2022-09-06T07:43:43.614Z,7.80
2022-09-06T07:45:52.451Z,7.78
2022-09-06T07:48:00.092Z,7.57
2022-09-06T07:55:02.282Z,8.82
2022-09-06T07:57:09.356Z,8.93
2022-09-06T07:59:18.690Z,11.15
2022-09-06T08:01:35.544Z,9.23
2022-09-06T08:03:43.032Z,7.55
2022-09-06T08:06:09.340Z,7.97
2022-09-06T08:10:44.218Z,9.00
2022-09-06T08:12:51.335Z,9.15
2022-09-06T08:14:58.669Z,8.60
2022-09-06T08:17:07.752Z,8.85
2022-09-06T08:19:15.346Z,8.07
2022-09-06T08:21:24.719Z,7.90
2022-09-06T08:23:32.005Z,11.05
2022-09-06T08:25:38.988Z,8.45
2022-09-06T08:27:46.058Z,8.57
2022-09-06T08:29:53.345Z,7.78
2022-09-06T08:32:00.687Z,9.60
2022-09-06T08:34:09.909Z,10.88
2022-09-06T08:36:17.100Z,7.90
2022-09-06T08:38:24.018Z,8.32
2022-09-06T08:40:31.155Z,9.60
2022-09-06T08:42:42.585Z,9.13
2022-09-06T08:47:06.517Z,10.85
2022-09-06T08:49:15.848Z,9.93
2022-09-06T08:51:59.432Z,8.48
2022-09-06T08:54:14.713Z,8.60
2022-09-06T08:56:26.558Z,8.85
2022-09-06T08:58:53.811Z,10.52
2022-09-06T09:01:04.077Z,7.88
2022-09-06T09:03:16.989Z,8.60
2022-09-06T09:05:29.219Z,8.57
2022-09-06T09:07:46.395Z,9.50
2022-09-06T09:09:55.354Z,9.55
2022-09-06T09:12:04.655Z,8.38
2022-09-06T09:14:18.530Z,9.13
2022-09-06T09:16:25.933Z,9.52
2022-09-06T09:18:36.935Z,9.55
2022-09-06T09:20:46.231Z,8.95
2022-09-06T09:22:53.251Z,8.73
2022-09-06T09:25:02.374Z,9.95
2022-09-06T09:27:12.368Z,10.18
2022-09-06T09:29:23.994Z,9.35
2022-09-06T09:31:39.951Z,9.75
2022-09-06T09:33:47.646Z,9.38
2022-09-06T09:35:57.131Z,10.68
2022-09-06T09:38:11.066Z,10.48
2022-09-06T09:40:21.382Z,9.73
2022-09-06T09:42:32.901Z,8.98
2022-09-06T09:44:45.511Z,10.88
2022-09-06T09:46:52.871Z,8.50
2022-09-06T09:49:12.825Z,9.40
2022-09-06T09:51:27.826Z,9.45
2022-09-06T09:53:35.040Z,8.57
2022-09-06T09:55:43.541Z,9.30
2022-09-06T09:57:55.014Z,8.68
2022-09-06T10:00:03.895Z,9.98
2022-09-06T10:02:23.050Z,10.07
2022-09-06T10:09:22.952Z,9.32
2022-09-06T10:11:44.621Z,9.52
2022-09-06T10:13:51.601Z,9.95
2022-09-06T10:15:59.876Z,9.40
2022-09-06T10:18:07.101Z,10.20
2022-09-06T10:20:15.497Z,10.63
2022-09-06T10:22:31.491Z,9.25
2022-09-06T10:24:51.071Z,9.05
2022-09-06T10:27:02.367Z,11.63
2022-09-06T10:29:11.152Z,12.20
2022-09-06T10:31:37.208Z,10.25
2022-09-06T10:33:56.591Z,10.98
2022-09-06T10:36:06.897Z,12.32
2022-09-06T10:38:31.597Z,12.57
2022-09-06T10:40:44.611Z,12.15
2022-09-06T10:42:55.117Z,10.35
2022-09-06T10:45:26.159Z,12.55
2022-09-06T10:47:38.427Z,12.75
2022-09-06T10:49:49.955Z,14.63
2022-09-06T10:52:01.272Z,13.23
2022-09-06T10:54:13.474Z,12.90
2022-09-06T10:56:25.461Z,13.77
2022-09-06T11:01:02.270Z,13.77
2022-09-06T11:05:47.644Z,12.60
2022-09-06T11:10:33.754Z,13.65
2022-09-06T11:12:45.646Z,14.05
2022-09-06T11:14:52.985Z,16.92
2022-09-06T11:17:04.159Z,14.63
2022-09-06T11:19:19.373Z,12.95
2022-09-06T11:22:07.732Z,12.75
2022-09-06T11:24:16.794Z,13.95
2022-09-06T11:26:45.594Z,15.82
2022-09-06T11:28:56.870Z,17.60
2022-09-06T11:31:04.862Z,24.58
2022-09-06T11:33:24.472Z,15.63
2022-09-06T11:35:33.305Z,17.48
2022-09-06T11:37:45.714Z,16.35
2022-09-06T11:40:32.110Z,20.15
2022-09-06T11:43:19.035Z,18.65
2022-09-06T11:45:44.086Z,19.67
2022-09-06T11:47:53.263Z,18.35
2022-09-06T11:50:00.106Z,18.67
2022-09-06T11:52:21.705Z,19.17
2022-09-06T11:54:33.190Z,20.70
2022-09-06T11:56:46.217Z,19.50
2022-09-06T11:58:59.474Z,19.33
2022-09-06T12:01:40.202Z,22.52
2022-09-06T12:04:07.226Z,23.13
2022-09-06T12:06:20.979Z,22.77
2022-09-06T12:08:40.757Z,25.33
2022-09-06T12:11:00.375Z,23.20
2022-09-06T12:13:50.981Z,26.40
2022-09-06T12:16:00.965Z,25.10
2022-09-06T12:18:08.212Z,31.60
2022-09-06T12:20:35.514Z,30.45
2022-09-06T12:23:06.141Z,27.13
2022-09-06T12:25:21.672Z,26.77
2022-09-06T12:27:29.720Z,25.08
2022-09-06T12:29:37.020Z,23.08
2022-09-06T12:31:47.112Z,23.95
2022-09-06T12:33:55.880Z,24.95
2022-09-06T12:36:20.154Z,25.90
2022-09-06T12:38:28.846Z,24.38
2022-09-06T12:40:40.978Z,26.02
2022-09-06T12:42:50.661Z,25.45
2022-09-06T12:44:58.920Z,27.30
2022-09-06T12:47:14.910Z,23.25
2022-09-06T12:49:25.316Z,26.92
2022-09-06T12:51:32.499Z,24.90
2022-09-06T12:53:41.056Z,26.77
2022-09-06T12:55:50.434Z,28.30
2022-09-06T12:57:59.157Z,29.48
2022-09-06T13:00:06.706Z,25.83
2022-09-06T13:02:19.750Z,28.23
2022-09-06T13:04:35.405Z,29.60
2022-09-06T13:06:46.830Z,25.10
2022-09-06T13:08:55.336Z,26.73
2022-09-06T13:11:03.135Z,26.67
2022-09-06T13:13:10.111Z,25.58
2022-09-06T13:15:21.642Z,26.20
2022-09-06T13:17:32.567Z,28.50
2022-09-06T13:19:42.821Z,28.13
2022-09-06T13:21:51.124Z,26.15
2022-09-06T13:24:00.261Z,27.05
2022-09-06T13:26:07.335Z,25.77
2022-09-06T13:28:14.514Z,25.02
2022-09-06T13:30:50.021Z,23.40
2022-09-06T13:32:59.245Z,28.85
2022-09-06T13:35:07.242Z,24.88
2022-09-06T13:37:15.048Z,24.42
2022-09-06T13:39:34.699Z,25.10
2022-09-06T13:41:45.270Z,24.77
2022-09-06T13:44:00.283Z,27.23
2022-09-06T13:46:11.579Z,29.35
2022-09-06T13:48:29.114Z,24.48
2022-09-06T13:50:36.681Z,24.02
2022-09-06T13:52:43.765Z,25.80
2022-09-06T13:54:51.296Z,31.58
2022-09-06T13:56:58.342Z,27.40
2022-09-06T13:59:05.984Z,27.08
2022-09-06T14:01:15.353Z,30.38
2022-09-06T14:03:27.974Z,31.33
2022-09-06T14:05:35.667Z,32.10
2022-09-06T14:07:42.938Z,27.38
2022-09-06T14:09:51.367Z,28.17
2022-09-06T14:12:36.363Z,26.38
2022-09-06T14:14:45.700Z,27.75
2022-09-06T14:16:52.988Z,26.15
2022-09-06T14:19:02.062Z,29.50
2022-09-06T14:21:09.655Z,28.17
2022-09-06T14:23:16.947Z,29.13
2022-09-06T14:25:24.122Z,28.05
2022-09-06T14:27:31.198Z,27.00
2022-09-06T14:29:38.336Z,27.20
2022-09-06T14:31:45.526Z,27.85
2022-09-06T14:33:52.842Z,32.58
2022-09-06T14:36:01.764Z,27.58
2022-09-06T14:38:08.949Z,31.95
2022-09-06T14:40:31.137Z,29.00
2022-09-06T14:42:38.673Z,30.35
2022-09-06T14:44:45.712Z,34.53
2022-09-06T14:46:54.772Z,33.55
2022-09-06T14:49:02.825Z,30.55
2022-09-06T14:51:19.072Z,33.35
2022-09-06T14:53:39.931Z,31.38
2022-09-06T14:57:55.667Z,30.90
2022-09-06T15:00:06.449Z,31.77
2022-09-06T15:02:13.859Z,31.17
2022-09-06T15:04:21.365Z,31.75
2022-09-06T15:06:30.897Z,30.85
2022-09-06T15:08:39.058Z,31.00
2022-09-06T15:10:55.446Z,33.78
2022-09-06T15:13:03.042Z,34.63
2022-09-06T15:15:11.042Z,33.78
2022-09-06T15:17:18.590Z,32.50
2022-09-06T15:19:25.984Z,34.42
2022-09-06T15:21:35.727Z,35.85
2022-09-06T15:23:44.186Z,32.58
2022-09-06T15:25:53.304Z,31.13
2022-09-06T15:28:00.787Z,35.88
2022-09-06T15:30:08.379Z,35.20
2022-09-06T15:32:16.231Z,34.92
2022-09-06T15:34:24.694Z,33.40
2022-09-06T15:36:34.641Z,32.17
2022-09-06T15:38:46.230Z,33.15
2022-09-06T15:40:53.605Z,38.25
2022-09-06T15:43:00.898Z,32.33
2022-09-06T15:45:08.594Z,34.60
2022-09-06T15:47:16.382Z,33.80
2022-09-06T15:49:28.055Z,33.25
2022-09-06T15:51:38.112Z,35.92
2022-09-06T15:53:45.449Z,36.00
2022-09-06T15:56:00.359Z,35.70
2022-09-06T15:58:07.641Z,34.17
2022-09-06T16:00:16.167Z,33.38
2022-09-06T16:02:23.320Z,36.70
2022-09-06T16:04:31.083Z,32.08
2022-09-06T16:06:43.239Z,31.40
2022-09-06T16:08:50.877Z,29.40
2022-09-06T16:10:58.427Z,30.33
2022-09-06T16:13:05.809Z,33.83
2022-09-06T16:15:14.320Z,32.20
2022-09-06T16:17:23.444Z,31.48
2022-09-06T16:19:30.624Z,33.22
2022-09-06T16:21:41.386Z,33.58
2022-09-06T16:23:55.043Z,32.75
2022-09-06T16:26:02.310Z,31.55
2022-09-06T16:28:09.598Z,33.38
2022-09-06T16:30:17.344Z,29.30
2022-09-06T16:32:24.582Z,30.85
2022-09-06T16:34:31.971Z,32.70
2022-09-06T16:36:40.929Z,33.42
2022-09-06T16:38:48.166Z,33.55
2022-09-06T16:40:55.666Z,32.55
2022-09-06T16:43:02.729Z,32.17
2022-09-06T16:45:11.412Z,28.35
2022-09-06T16:47:18.424Z,31.05
2022-09-06T16:49:25.961Z,26.75
2022-09-06T16:51:34.066Z,31.70
2022-09-06T16:53:43.755Z,26.55
2022-09-06T16:55:51.399Z,29.48
2022-09-06T16:57:59.142Z,31.10
2022-09-06T17:00:07.620Z,32.83
2022-09-06T17:02:14.862Z,30.40
2022-09-06T17:04:22.786Z,28.88
2022-09-06T17:06:29.874Z,31.10
2022-09-06T17:08:37.611Z,31.23
2022-09-06T17:10:46.860Z,29.13
2022-09-06T17:12:54.024Z,29.17
2022-09-06T17:15:01.406Z,30.42
2022-09-06T17:17:07.412Z,29.55
2022-09-06T17:19:15.155Z,31.75
2022-09-06T17:21:22.751Z,29.88
2022-09-06T17:23:30.446Z,30.05
2022-09-06T17:25:37.590Z,34.22
2022-09-06T17:27:47.121Z,30.00
2022-09-06T17:29:54.194Z,32.95
2022-09-06T17:32:01.481Z,32.63
2022-09-06T17:34:09.284Z,33.05
2022-09-06T17:36:18.089Z,34.83
2022-09-06T17:38:25.228Z,41.90
2022-09-06T17:40:32.453Z,37.50
2022-09-06T17:42:39.634Z,35.42
2022-09-06T17:44:48.357Z,33.10
2022-09-06T17:47:11.844Z,35.35
2022-09-06T17:49:20.951Z,30.83
2022-09-06T17:51:28.581Z,28.48
2022-09-06T17:53:35.885Z,29.02
2022-09-06T17:55:43.971Z,22.33
2022-09-06T17:57:51.563Z,18.35
2022-09-06T18:00:00.289Z,26.58
2022-09-06T18:02:08.233Z,26.02
2022-09-06T18:04:16.384Z,27.30
2022-09-06T18:06:25.566Z,30.38
2022-09-06T18:08:32.504Z,26.00
2022-09-06T18:10:40.964Z,29.48
2022-09-06T18:12:48.457Z,26.77
2022-09-06T18:14:55.778Z,27.45
2022-09-06T18:17:04.647Z,26.73
2022-09-06T18:19:13.055Z,27.88
2022-09-06T18:21:20.287Z,27.85
2022-09-06T18:23:27.529Z,29.42
2022-09-06T18:25:34.758Z,28.85
2022-09-06T18:27:41.909Z,27.45
2022-09-06T18:29:49.018Z,29.67
2022-09-06T18:31:56.310Z,29.60
2022-09-06T18:34:05.529Z,26.88
2022-09-06T18:36:14.041Z,29.85
2022-09-06T18:38:21.634Z,32.42
2022-09-06T18:40:28.712Z,36.22
2022-09-06T18:42:36.218Z,29.30
2022-09-06T18:44:43.485Z,30.80
2022-09-06T18:46:51.484Z,29.98
2022-09-06T18:48:58.472Z,31.10
2022-09-06T18:51:10.519Z,28.60
2022-09-06T18:53:19.377Z,31.02
2022-09-06T18:55:26.355Z,29.00
2022-09-06T18:57:33.434Z,28.73
2022-09-06T18:59:41.188Z,25.52
2022-09-06T19:01:48.833Z,26.40
2022-09-06T19:03:56.065Z,30.73
2022-09-06T19:06:08.926Z,26.90
2022-09-06T19:08:16.461Z,24.08
2022-09-06T19:10:23.607Z,27.75
2022-09-06T19:12:30.879Z,26.85
2022-09-06T19:14:37.961Z,26.17
2022-09-06T19:16:46.314Z,25.05
2022-09-06T19:18:56.417Z,27.33
2022-09-06T19:21:04.215Z,25.63
2022-09-06T19:23:12.877Z,27.63
2022-09-06T19:25:20.515Z,26.88
2022-09-06T19:27:28.424Z,27.80
2022-09-06T19:29:36.008Z,23.65
2022-09-06T19:31:43.549Z,25.27
2022-09-06T19:33:52.111Z,23.60
2022-09-06T19:36:10.929Z,22.52
2022-09-06T19:38:20.716Z,27.05
2022-09-06T19:40:27.994Z,23.98
2022-09-06T19:42:35.688Z,22.85
2022-09-06T19:44:42.716Z,23.77
2022-09-06T19:46:50.129Z,23.40
2022-09-06T19:48:58.675Z,26.25
2022-09-06T19:51:07.178Z,25.33
2022-09-06T19:53:14.363Z,25.42
2022-09-06T19:55:23.658Z,26.77
2022-09-06T19:57:30.776Z,29.88
2022-09-06T19:59:38.668Z,23.17
2022-09-06T20:01:47.461Z,24.42
2022-09-06T20:03:55.129Z,27.17
2022-09-06T20:06:03.801Z,26.67
2022-09-06T20:08:11.147Z,25.10
2022-09-06T20:10:18.944Z,26.25
2022-09-06T20:12:30.774Z,25.60
2022-09-06T20:14:38.111Z,25.40
2022-09-06T20:16:45.923Z,24.77
2022-09-06T20:18:53.611Z,25.02
2022-09-06T20:21:01.913Z,23.17
2022-09-06T20:23:09.904Z,25.38
2022-09-06T20:25:17.409Z,27.13
2022-09-06T20:27:26.987Z,24.95
2022-09-06T20:29:34.057Z,23.63
2022-09-06T20:31:42.442Z,23.05
2022-09-06T20:33:50.022Z,28.40
2022-09-06T20:36:03.898Z,27.88
2022-09-06T20:38:11.242Z,24.92
2022-09-06T20:40:18.572Z,24.92
2022-09-06T20:42:27.338Z,29.20
2022-09-06T20:44:34.635Z,27.98
2022-09-06T20:46:42.234Z,27.70
2022-09-06T20:48:49.963Z,27.85
2022-09-06T20:51:05.176Z,25.45
2022-09-06T20:53:12.464Z,26.17
2022-09-06T20:55:20.308Z,27.55
2022-09-06T20:57:29.435Z,23.85
2022-09-06T20:59:36.413Z,22.02
2022-09-06T21:01:45.480Z,24.70
2022-09-06T21:03:54.261Z,26.15
2022-09-06T21:06:01.392Z,25.17
2022-09-06T21:08:08.425Z,27.55
2022-09-06T21:10:15.906Z,21.88
2022-09-06T21:12:22.892Z,23.02
2022-09-06T21:14:31.710Z,23.35
2022-09-06T21:16:39.926Z,24.25
2022-09-06T21:18:47.344Z,23.27
2022-09-06T21:20:58.318Z,29.95
2022-09-06T21:23:05.823Z,29.60
2022-09-06T21:25:13.601Z,33.22
2022-09-06T21:27:20.936Z,34.47
2022-09-06T21:29:30.069Z,32.47
2022-09-06T21:31:39.414Z,29.00
2022-09-06T21:33:49.004Z,28.58
2022-09-06T21:35:56.165Z,26.83
2022-09-06T21:38:03.243Z,30.65
2022-09-06T21:40:11.699Z,30.10
2022-09-06T21:42:19.662Z,26.27
2022-09-06T21:44:27.356Z,31.55
2022-09-06T21:46:38.257Z,28.90
2022-09-06T21:48:46.781Z,27.75
2022-09-06T21:50:54.480Z,29.70
2022-09-06T21:53:01.654Z,29.88
2022-09-06T21:55:12.356Z,33.10
2022-09-06T21:57:23.213Z,30.05
2022-09-06T21:59:30.316Z,27.55
2022-09-06T22:01:40.309Z,29.38
2022-09-06T22:03:47.712Z,31.02
2022-09-06T22:05:55.296Z,28.35
2022-09-06T22:08:02.524Z,32.28
2022-09-06T22:10:10.375Z,26.15
2022-09-06T22:12:17.759Z,31.52
2022-09-06T22:14:25.252Z,37.58
2022-09-06T22:16:32.761Z,46.28
2022-09-06T22:18:42.030Z,68.05
2022-09-06T22:20:49.357Z,81.93
2022-09-06T22:22:56.596Z,76.57
2022-09-06T22:25:03.768Z,79.93
2022-09-06T22:27:11.419Z,72.68
2022-09-06T22:29:18.502Z,67.72
2022-09-06T22:31:26.041Z,66.28
2022-09-06T22:33:33.263Z,56.28
2022-09-06T22:35:42.390Z,52.17
2022-09-06T22:37:49.570Z,54.05
2022-09-06T22:39:57.465Z,53.92
2022-09-06T22:42:05.025Z,52.22
2022-09-06T22:44:12.447Z,49.13
2022-09-06T22:46:19.879Z,49.53
2022-09-06T22:48:27.132Z,47.53
2022-09-06T22:50:34.761Z,47.95
2022-09-06T22:52:43.732Z,42.13
2022-09-06T22:54:51.137Z,34.83
2022-09-06T22:56:58.407Z,32.97
2022-09-06T22:59:05.741Z,35.83
2022-09-06T23:01:14.782Z,28.67
2022-09-06T23:03:22.125Z,27.40
2022-09-06T23:05:29.445Z,28.20
2022-09-06T23:07:37.147Z,25.83
2022-09-06T23:09:46.310Z,25.67
2022-09-06T23:11:53.794Z,27.08
2022-09-06T23:14:01.451Z,24.38
2022-09-06T23:16:10.412Z,23.40
2022-09-06T23:18:18.012Z,24.40
2022-09-06T23:20:25.291Z,26.42
2022-09-06T23:22:32.628Z,29.52
2022-09-06T23:24:40.785Z,36.55
2022-09-06T23:26:49.712Z,41.08
2022-09-06T23:28:58.419Z,43.03
2022-09-06T23:31:07.045Z,40.53
2022-09-06T23:33:14.365Z,39.33
2022-09-06T23:35:21.553Z,36.67
2022-09-06T23:37:29.150Z,30.00
2022-09-06T23:39:36.195Z,29.70
2022-09-06T23:41:43.518Z,25.48
2022-09-06T23:43:52.221Z,24.05
2022-09-06T23:45:59.674Z,24.10
2022-09-06T23:48:07.236Z,29.50
2022-09-06T23:50:14.554Z,27.25
2022-09-06T23:52:21.869Z,26.90
2022-09-06T23:54:29.309Z,28.63
2022-09-06T23:56:36.382Z,29.08
2022-09-06T23:58:43.422Z,30.65
